EGXZ - Topcliffe Royal Air Force Base
Distance from station: E 5mi, 14km
Updated: 10/20/2017 10:50pm
Mostly Cloudy
Mostly Cloudy
 Wind from SSE
Wind: SSE 15 mph , 24 km/h
Temperature: 54°F , 12°C
Dew Point: 54°F , 12°C
Humidity: 100%
Barometer: 29.38 inHg , 995 hPa
Clouds: Mostly Cloudy
Visibility: 6 miles , 10 km
Cloud details: Few Clouds 600 ft
Mostly Cloudy 9000 ft
2017/10/21 05:50 EGXZ 210550Z AUTO 15013KT 9999 FEW006/// BKN090/// 12/12 Q0995 RERA